sensor_id;sensor_type;location;lat;lon;timestamp;P1;durP1;ratioP1;P2;durP2;ratioP2
15449;SDS011;7826;49.784;9.934;2023-02-20T00:00:44;3.40;;;2.53;;
15449;SDS011;7826;49.784;9.934;2023-02-20T00:03:12;4.40;;;2.83;;
15449;SDS011;7826;49.784;9.934;2023-02-20T00:05:39;3.77;;;2.50;;
15449;SDS011;7826;49.784;9.934;2023-02-20T00:08:05;2.83;;;2.50;;
15449;SDS011;7826;49.784;9.934;2023-02-20T00:10:32;3.33;;;2.67;;
15449;SDS011;7826;49.784;9.934;2023-02-20T00:12:59;5.23;;;2.90;;
15449;SDS011;7826;49.784;9.934;2023-02-20T00:15:25;3.07;;;2.20;;
15449;SDS011;7826;49.784;9.934;2023-02-20T00:17:52;5.53;;;2.93;;
15449;SDS011;7826;49.784;9.934;2023-02-20T00:20:22;3.07;;;2.50;;
15449;SDS011;7826;49.784;9.934;2023-02-20T00:22:50;3.40;;;2.70;;
15449;SDS011;7826;49.784;9.934;2023-02-20T00:25:17;3.83;;;2.30;;
15449;SDS011;7826;49.784;9.934;2023-02-20T00:27:45;4.17;;;2.43;;
15449;SDS011;7826;49.784;9.934;2023-02-20T00:30:19;5.90;;;3.00;;
15449;SDS011;7826;49.784;9.934;2023-02-20T00:32:48;4.50;;;2.83;;
15449;SDS011;7826;49.784;9.934;2023-02-20T00:37:43;3.17;;;2.40;;
15449;SDS011;7826;49.784;9.934;2023-02-20T00:40:13;3.67;;;2.33;;
15449;SDS011;7826;49.784;9.934;2023-02-20T00:42:40;3.23;;;2.80;;
15449;SDS011;7826;49.784;9.934;2023-02-20T00:45:06;3.47;;;2.47;;
15449;SDS011;7826;49.784;9.934;2023-02-20T00:47:34;6.20;;;3.00;;
15449;SDS011;7826;49.784;9.934;2023-02-20T00:50:01;2.60;;;2.30;;
15449;SDS011;7826;49.784;9.934;2023-02-20T00:52:27;5.17;;;2.80;;
15449;SDS011;7826;49.784;9.934;2023-02-20T00:54:54;3.43;;;2.87;;
15449;SDS011;7826;49.784;9.934;2023-02-20T00:57:20;4.00;;;2.57;;
15449;SDS011;7826;49.784;9.934;2023-02-20T00:59:46;6.53;;;2.87;;
15449;SDS011;7826;49.784;9.934;2023-02-20T01:02:13;3.23;;;2.47;;
15449;SDS011;7826;49.784;9.934;2023-02-20T01:04:39;4.37;;;2.57;;
15449;SDS011;7826;49.784;9.934;2023-02-20T01:07:06;4.17;;;2.57;;
15449;SDS011;7826;49.784;9.934;2023-02-20T01:09:32;3.33;;;2.67;;
15449;SDS011;7826;49.784;9.934;2023-02-20T01:11:58;4.17;;;2.83;;
15449;SDS011;7826;49.784;9.934;2023-02-20T01:14:24;3.57;;;2.80;;
15449;SDS011;7826;49.784;9.934;2023-02-20T01:16:51;6.27;;;2.97;;
15449;SDS011;7826;49.784;9.934;2023-02-20T01:19:18;4.87;;;2.73;;
15449;SDS011;7826;49.784;9.934;2023-02-20T01:21:46;4.87;;;2.63;;
15449;SDS011;7826;49.784;9.934;2023-02-20T01:24:15;4.27;;;2.50;;
15449;SDS011;7826;49.784;9.934;2023-02-20T01:26:43;4.93;;;3.30;;
15449;SDS011;7826;49.784;9.934;2023-02-20T01:29:11;3.20;;;2.90;;
15449;SDS011;7826;49.784;9.934;2023-02-20T01:31:37;8.77;;;3.63;;
15449;SDS011;7826;49.784;9.934;2023-02-20T01:34:04;3.57;;;2.67;;
15449;SDS011;7826;49.784;9.934;2023-02-20T01:36:30;4.07;;;3.10;;
15449;SDS011;7826;49.784;9.934;2023-02-20T01:38:56;4.93;;;2.70;;
15449;SDS011;7826;49.784;9.934;2023-02-20T01:41:23;4.70;;;3.30;;
15449;SDS011;7826;49.784;9.934;2023-02-20T01:43:50;4.77;;;3.20;;
15449;SDS011;7826;49.784;9.934;2023-02-20T01:51:28;6.20;;;3.13;;
15449;SDS011;7826;49.784;9.934;2023-02-20T01:53:59;5.13;;;3.07;;
15449;SDS011;7826;49.784;9.934;2023-02-20T01:56:26;6.23;;;3.03;;
15449;SDS011;7826;49.784;9.934;2023-02-20T01:58:52;4.23;;;2.90;;
15449;SDS011;7826;49.784;9.934;2023-02-20T02:01:19;5.30;;;3.37;;
15449;SDS011;7826;49.784;9.934;2023-02-20T02:03:46;4.20;;;3.20;;
15449;SDS011;7826;49.784;9.934;2023-02-20T02:06:19;4.20;;;3.37;;
15449;SDS011;7826;49.784;9.934;2023-02-20T02:08:45;4.33;;;3.03;;
15449;SDS011;7826;49.784;9.934;2023-02-20T02:11:13;5.10;;;2.80;;
15449;SDS011;7826;49.784;9.934;2023-02-20T02:13:42;5.90;;;3.10;;
15449;SDS011;7826;49.784;9.934;2023-02-20T02:24:54;4.27;;;2.90;;
15449;SDS011;7826;49.784;9.934;2023-02-20T02:27:24;5.13;;;3.27;;
15449;SDS011;7826;49.784;9.934;2023-02-20T02:43:40;4.37;;;2.97;;
15449;SDS011;7826;49.784;9.934;2023-02-20T02:51:59;5.43;;;3.00;;
15449;SDS011;7826;49.784;9.934;2023-02-20T02:54:27;4.60;;;2.80;;
15449;SDS011;7826;49.784;9.934;2023-02-20T02:59:44;3.40;;;2.73;;
15449;SDS011;7826;49.784;9.934;2023-02-20T03:02:12;5.73;;;3.33;;
15449;SDS011;7826;49.784;9.934;2023-02-20T03:04:40;5.80;;;3.27;;
15449;SDS011;7826;49.784;9.934;2023-02-20T03:07:12;5.53;;;3.00;;
15449;SDS011;7826;49.784;9.934;2023-02-20T03:09:51;7.87;;;3.20;;
15449;SDS011;7826;49.784;9.934;2023-02-20T03:12:43;6.87;;;3.13;;
15449;SDS011;7826;49.784;9.934;2023-02-20T03:15:33;4.00;;;3.13;;
15449;SDS011;7826;49.784;9.934;2023-02-20T03:20:44;3.63;;;2.90;;
15449;SDS011;7826;49.784;9.934;2023-02-20T03:23:17;5.37;;;3.20;;
15449;SDS011;7826;49.784;9.934;2023-02-20T03:28:24;2.90;;;2.60;;
15449;SDS011;7826;49.784;9.934;2023-02-20T03:31:08;4.67;;;2.97;;
15449;SDS011;7826;49.784;9.934;2023-02-20T03:33:55;4.43;;;2.83;;
15449;SDS011;7826;49.784;9.934;2023-02-20T03:36:51;4.23;;;3.03;;
15449;SDS011;7826;49.784;9.934;2023-02-20T03:39:59;3.10;;;2.60;;
15449;SDS011;7826;49.784;9.934;2023-02-20T03:42:47;8.00;;;3.17;;
15449;SDS011;7826;49.784;9.934;2023-02-20T03:45:37;4.27;;;2.73;;
15449;SDS011;7826;49.784;9.934;2023-02-20T03:48:07;7.07;;;3.20;;
15449;SDS011;7826;49.784;9.934;2023-02-20T03:50:39;4.20;;;2.70;;
15449;SDS011;7826;49.784;9.934;2023-02-20T03:53:24;8.60;;;3.20;;
15449;SDS011;7826;49.784;9.934;2023-02-20T03:55:51;6.37;;;2.73;;
15449;SDS011;7826;49.784;9.934;2023-02-20T03:58:23;6.73;;;3.03;;
15449;SDS011;7826;49.784;9.934;2023-02-20T04:00:52;3.90;;;2.97;;
15449;SDS011;7826;49.784;9.934;2023-02-20T04:03:22;5.47;;;3.20;;
15449;SDS011;7826;49.784;9.934;2023-02-20T04:05:53;5.33;;;2.80;;
15449;SDS011;7826;49.784;9.934;2023-02-20T04:08:31;6.37;;;4.10;;
15449;SDS011;7826;49.784;9.934;2023-02-20T04:11:15;8.30;;;3.73;;
15449;SDS011;7826;49.784;9.934;2023-02-20T04:13:50;6.23;;;3.53;;
15449;SDS011;7826;49.784;9.934;2023-02-20T04:16:19;4.00;;;2.93;;
15449;SDS011;7826;49.784;9.934;2023-02-20T04:18:46;5.70;;;3.90;;
15449;SDS011;7826;49.784;9.934;2023-02-20T04:21:27;5.20;;;3.07;;
15449;SDS011;7826;49.784;9.934;2023-02-20T04:24:16;6.37;;;2.70;;
15449;SDS011;7826;49.784;9.934;2023-02-20T04:26:45;4.60;;;3.10;;
15449;SDS011;7826;49.784;9.934;2023-02-20T04:29:12;3.43;;;2.97;;
15449;SDS011;7826;49.784;9.934;2023-02-20T04:31:38;3.50;;;2.93;;
15449;SDS011;7826;49.784;9.934;2023-02-20T04:34:05;3.90;;;2.80;;
15449;SDS011;7826;49.784;9.934;2023-02-20T04:36:32;5.90;;;3.30;;
15449;SDS011;7826;49.784;9.934;2023-02-20T04:38:58;3.97;;;3.10;;
15449;SDS011;7826;49.784;9.934;2023-02-20T04:41:25;3.70;;;2.90;;
15449;SDS011;7826;49.784;9.934;2023-02-20T04:43:51;5.23;;;3.00;;
15449;SDS011;7826;49.784;9.934;2023-02-20T04:46:37;4.07;;;2.77;;
15449;SDS011;7826;49.784;9.934;2023-02-20T04:49:04;12.57;;;3.73;;
15449;SDS011;7826;49.784;9.934;2023-02-20T04:51:30;4.80;;;2.70;;
15449;SDS011;7826;49.784;9.934;2023-02-20T04:53:56;3.47;;;2.60;;
15449;SDS011;7826;49.784;9.934;2023-02-20T04:56:23;2.70;;;2.50;;
15449;SDS011;7826;49.784;9.934;2023-02-20T04:58:49;5.13;;;2.97;;
15449;SDS011;7826;49.784;9.934;2023-02-20T05:01:22;3.57;;;2.57;;
15449;SDS011;7826;49.784;9.934;2023-02-20T05:03:48;4.30;;;3.27;;
15449;SDS011;7826;49.784;9.934;2023-02-20T05:06:15;4.10;;;2.87;;
15449;SDS011;7826;49.784;9.934;2023-02-20T05:08:41;3.10;;;2.80;;
15449;SDS011;7826;49.784;9.934;2023-02-20T05:11:07;6.07;;;3.27;;
15449;SDS011;7826;49.784;9.934;2023-02-20T05:13:33;5.83;;;3.20;;
15449;SDS011;7826;49.784;9.934;2023-02-20T05:16:00;4.20;;;2.80;;
15449;SDS011;7826;49.784;9.934;2023-02-20T05:18:26;4.80;;;3.10;;
15449;SDS011;7826;49.784;9.934;2023-02-20T05:20:54;5.83;;;2.97;;
15449;SDS011;7826;49.784;9.934;2023-02-20T05:23:39;4.83;;;3.60;;
15449;SDS011;7826;49.784;9.934;2023-02-20T05:26:09;3.63;;;2.57;;
15449;SDS011;7826;49.784;9.934;2023-02-20T05:28:37;3.90;;;2.57;;
15449;SDS011;7826;49.784;9.934;2023-02-20T05:31:04;3.80;;;2.97;;
15449;SDS011;7826;49.784;9.934;2023-02-20T05:33:31;3.63;;;2.73;;
15449;SDS011;7826;49.784;9.934;2023-02-20T05:35:58;8.10;;;3.00;;
15449;SDS011;7826;49.784;9.934;2023-02-20T05:38:25;4.40;;;3.10;;
15449;SDS011;7826;49.784;9.934;2023-02-20T05:40:51;4.23;;;2.77;;
15449;SDS011;7826;49.784;9.934;2023-02-20T05:43:18;6.00;;;3.37;;
15449;SDS011;7826;49.784;9.934;2023-02-20T05:45:44;4.83;;;3.13;;
15449;SDS011;7826;49.784;9.934;2023-02-20T05:48:11;3.70;;;2.80;;
15449;SDS011;7826;49.784;9.934;2023-02-20T05:50:38;5.30;;;2.67;;
15449;SDS011;7826;49.784;9.934;2023-02-20T05:53:04;6.13;;;3.43;;
15449;SDS011;7826;49.784;9.934;2023-02-20T05:55:31;5.77;;;3.60;;
15449;SDS011;7826;49.784;9.934;2023-02-20T05:57:57;8.47;;;3.80;;
15449;SDS011;7826;49.784;9.934;2023-02-20T06:00:23;4.80;;;3.10;;
15449;SDS011;7826;49.784;9.934;2023-02-20T06:02:50;6.17;;;2.90;;
15449;SDS011;7826;49.784;9.934;2023-02-20T06:05:17;7.73;;;3.20;;
15449;SDS011;7826;49.784;9.934;2023-02-20T06:07:46;6.97;;;3.60;;
15449;SDS011;7826;49.784;9.934;2023-02-20T06:10:14;4.43;;;3.00;;
15449;SDS011;7826;49.784;9.934;2023-02-20T06:12:42;5.17;;;3.20;;
15449;SDS011;7826;49.784;9.934;2023-02-20T06:15:09;4.93;;;3.53;;
15449;SDS011;7826;49.784;9.934;2023-02-20T06:17:35;4.33;;;2.37;;
15449;SDS011;7826;49.784;9.934;2023-02-20T06:20:01;4.50;;;3.40;;
15449;SDS011;7826;49.784;9.934;2023-02-20T06:22:28;4.50;;;2.80;;
15449;SDS011;7826;49.784;9.934;2023-02-20T06:24:54;5.33;;;3.10;;
15449;SDS011;7826;49.784;9.934;2023-02-20T06:27:20;4.23;;;3.13;;
15449;SDS011;7826;49.784;9.934;2023-02-20T06:29:46;6.60;;;3.67;;
15449;SDS011;7826;49.784;9.934;2023-02-20T06:32:13;4.50;;;2.93;;
15449;SDS011;7826;49.784;9.934;2023-02-20T06:34:39;5.87;;;3.20;;
15449;SDS011;7826;49.784;9.934;2023-02-20T06:37:06;4.17;;;3.40;;
15449;SDS011;7826;49.784;9.934;2023-02-20T06:39:32;4.07;;;3.23;;
15449;SDS011;7826;49.784;9.934;2023-02-20T06:41:58;8.20;;;3.33;;
15449;SDS011;7826;49.784;9.934;2023-02-20T06:44:25;5.23;;;3.43;;
15449;SDS011;7826;49.784;9.934;2023-02-20T06:46:51;7.67;;;3.57;;
15449;SDS011;7826;49.784;9.934;2023-02-20T06:49:18;5.13;;;3.73;;
15449;SDS011;7826;49.784;9.934;2023-02-20T06:51:44;3.53;;;2.87;;
15449;SDS011;7826;49.784;9.934;2023-02-20T06:54:11;7.73;;;3.03;;
15449;SDS011;7826;49.784;9.934;2023-02-20T06:56:38;5.03;;;3.03;;
15449;SDS011;7826;49.784;9.934;2023-02-20T06:59:04;5.43;;;3.30;;
15449;SDS011;7826;49.784;9.934;2023-02-20T07:01:36;6.37;;;3.73;;
15449;SDS011;7826;49.784;9.934;2023-02-20T07:04:05;7.30;;;3.47;;
15449;SDS011;7826;49.784;9.934;2023-02-20T07:06:31;5.40;;;3.23;;
15449;SDS011;7826;49.784;9.934;2023-02-20T07:08:58;6.53;;;3.73;;
15449;SDS011;7826;49.784;9.934;2023-02-20T07:11:24;4.67;;;3.27;;
15449;SDS011;7826;49.784;9.934;2023-02-20T07:13:50;6.30;;;3.37;;
15449;SDS011;7826;49.784;9.934;2023-02-20T07:16:16;5.23;;;3.47;;
15449;SDS011;7826;49.784;9.934;2023-02-20T07:18:43;4.73;;;3.33;;
15449;SDS011;7826;49.784;9.934;2023-02-20T07:21:09;4.97;;;3.20;;
15449;SDS011;7826;49.784;9.934;2023-02-20T07:23:36;5.23;;;3.10;;
15449;SDS011;7826;49.784;9.934;2023-02-20T07:26:02;5.57;;;2.70;;
15449;SDS011;7826;49.784;9.934;2023-02-20T07:28:29;5.40;;;2.53;;
15449;SDS011;7826;49.784;9.934;2023-02-20T07:30:55;3.97;;;2.47;;
15449;SDS011;7826;49.784;9.934;2023-02-20T07:33:21;2.57;;;2.20;;
15449;SDS011;7826;49.784;9.934;2023-02-20T07:35:48;3.27;;;2.23;;
15449;SDS011;7826;49.784;9.934;2023-02-20T07:38:14;7.00;;;2.70;;
15449;SDS011;7826;49.784;9.934;2023-02-20T07:40:40;2.83;;;2.40;;
15449;SDS011;7826;49.784;9.934;2023-02-20T07:43:07;2.57;;;2.37;;
15449;SDS011;7826;49.784;9.934;2023-02-20T07:45:33;3.40;;;2.60;;
15449;SDS011;7826;49.784;9.934;2023-02-20T07:47:59;5.13;;;2.40;;
15449;SDS011;7826;49.784;9.934;2023-02-20T07:50:26;4.53;;;2.60;;
15449;SDS011;7826;49.784;9.934;2023-02-20T07:52:52;3.47;;;2.20;;
15449;SDS011;7826;49.784;9.934;2023-02-20T07:55:19;3.13;;;2.27;;
15449;SDS011;7826;49.784;9.934;2023-02-20T07:57:46;3.03;;;2.50;;
15449;SDS011;7826;49.784;9.934;2023-02-20T08:00:14;1.80;;;1.70;;
15449;SDS011;7826;49.784;9.934;2023-02-20T08:02:41;3.17;;;2.47;;
15449;SDS011;7826;49.784;9.934;2023-02-20T08:05:09;3.57;;;2.50;;
15449;SDS011;7826;49.784;9.934;2023-02-20T08:07:36;3.37;;;2.13;;
15449;SDS011;7826;49.784;9.934;2023-02-20T08:10:03;6.17;;;2.80;;
15449;SDS011;7826;49.784;9.934;2023-02-20T08:12:30;1.90;;;1.80;;
15449;SDS011;7826;49.784;9.934;2023-02-20T08:14:56;1.80;;;1.70;;
15449;SDS011;7826;49.784;9.934;2023-02-20T08:17:23;2.40;;;2.10;;
15449;SDS011;7826;49.784;9.934;2023-02-20T08:19:49;2.80;;;2.30;;
15449;SDS011;7826;49.784;9.934;2023-02-20T08:22:15;2.30;;;2.03;;
15449;SDS011;7826;49.784;9.934;2023-02-20T08:24:41;2.57;;;2.00;;
15449;SDS011;7826;49.784;9.934;2023-02-20T08:27:08;2.27;;;1.77;;
15449;SDS011;7826;49.784;9.934;2023-02-20T08:29:34;2.57;;;1.87;;
15449;SDS011;7826;49.784;9.934;2023-02-20T08:32:00;3.50;;;1.93;;
15449;SDS011;7826;49.784;9.934;2023-02-20T08:34:26;2.97;;;2.00;;
15449;SDS011;7826;49.784;9.934;2023-02-20T08:36:53;2.60;;;1.80;;
15449;SDS011;7826;49.784;9.934;2023-02-20T08:39:19;4.10;;;1.80;;
15449;SDS011;7826;49.784;9.934;2023-02-20T08:41:46;4.03;;;1.87;;
15449;SDS011;7826;49.784;9.934;2023-02-20T08:44:12;3.33;;;2.17;;
15449;SDS011;7826;49.784;9.934;2023-02-20T08:46:46;2.77;;;1.93;;
15449;SDS011;7826;49.784;9.934;2023-02-20T08:49:14;1.80;;;1.70;;
15449;SDS011;7826;49.784;9.934;2023-02-20T08:51:43;3.13;;;1.70;;
15449;SDS011;7826;49.784;9.934;2023-02-20T08:54:11;4.80;;;2.13;;
15449;SDS011;7826;49.784;9.934;2023-02-20T08:56:38;2.07;;;1.97;;
15449;SDS011;7826;49.784;9.934;2023-02-20T08:59:05;2.13;;;2.00;;
15449;SDS011;7826;49.784;9.934;2023-02-20T09:01:32;5.43;;;2.10;;
15449;SDS011;7826;49.784;9.934;2023-02-20T09:03:58;3.37;;;2.00;;
15449;SDS011;7826;49.784;9.934;2023-02-20T09:06:25;3.27;;;2.20;;
15449;SDS011;7826;49.784;9.934;2023-02-20T09:08:53;5.33;;;2.23;;
15449;SDS011;7826;49.784;9.934;2023-02-20T09:11:20;2.63;;;2.03;;
15449;SDS011;7826;49.784;9.934;2023-02-20T09:13:46;2.97;;;2.40;;
15449;SDS011;7826;49.784;9.934;2023-02-20T09:16:15;2.43;;;2.07;;
15449;SDS011;7826;49.784;9.934;2023-02-20T09:18:45;3.57;;;1.90;;
15449;SDS011;7826;49.784;9.934;2023-02-20T09:21:13;3.10;;;2.10;;
15449;SDS011;7826;49.784;9.934;2023-02-20T09:23:42;3.17;;;2.10;;
15449;SDS011;7826;49.784;9.934;2023-02-20T09:26:09;3.30;;;2.10;;
15449;SDS011;7826;49.784;9.934;2023-02-20T09:28:35;5.67;;;2.00;;
15449;SDS011;7826;49.784;9.934;2023-02-20T09:31:02;5.07;;;2.13;;
15449;SDS011;7826;49.784;9.934;2023-02-20T09:33:29;2.17;;;1.93;;
15449;SDS011;7826;49.784;9.934;2023-02-20T09:35:55;2.93;;;1.67;;
15449;SDS011;7826;49.784;9.934;2023-02-20T09:38:22;3.93;;;1.97;;
15449;SDS011;7826;49.784;9.934;2023-02-20T09:40:57;4.07;;;2.23;;
15449;SDS011;7826;49.784;9.934;2023-02-20T09:46:15;8.10;;;2.27;;
15449;SDS011;7826;49.784;9.934;2023-02-20T09:51:20;3.23;;;2.10;;
15449;SDS011;7826;49.784;9.934;2023-02-20T09:54:05;5.80;;;2.37;;
15449;SDS011;7826;49.784;9.934;2023-02-20T09:56:38;3.10;;;2.03;;
15449;SDS011;7826;49.784;9.934;2023-02-20T10:04:39;3.57;;;1.90;;
15449;SDS011;7826;49.784;9.934;2023-02-20T10:07:26;2.97;;;2.03;;
15449;SDS011;7826;49.784;9.934;2023-02-20T10:09:58;2.97;;;1.87;;
15449;SDS011;7826;49.784;9.934;2023-02-20T10:17:43;2.87;;;2.03;;
15449;SDS011;7826;49.784;9.934;2023-02-20T10:25:48;4.43;;;2.80;;
15449;SDS011;7826;49.784;9.934;2023-02-20T10:28:18;4.57;;;2.20;;
15449;SDS011;7826;49.784;9.934;2023-02-20T10:33:25;3.17;;;1.87;;
15449;SDS011;7826;49.784;9.934;2023-02-20T10:36:11;4.20;;;2.10;;
15449;SDS011;7826;49.784;9.934;2023-02-20T10:38:59;3.53;;;2.10;;
15449;SDS011;7826;49.784;9.934;2023-02-20T10:44:32;2.80;;;2.20;;
15449;SDS011;7826;49.784;9.934;2023-02-20T10:47:06;4.17;;;2.43;;
15449;SDS011;7826;49.784;9.934;2023-02-20T10:52:36;11.23;;;4.83;;
15449;SDS011;7826;49.784;9.934;2023-02-20T10:55:20;5.30;;;2.47;;
15449;SDS011;7826;49.784;9.934;2023-02-20T10:58:03;2.83;;;2.30;;
15449;SDS011;7826;49.784;9.934;2023-02-20T11:00:39;3.47;;;2.20;;
15449;SDS011;7826;49.784;9.934;2023-02-20T11:03:14;4.53;;;2.33;;
15449;SDS011;7826;49.784;9.934;2023-02-20T11:05:47;2.53;;;2.30;;
15449;SDS011;7826;49.784;9.934;2023-02-20T11:08:18;3.40;;;2.30;;
15449;SDS011;7826;49.784;9.934;2023-02-20T11:10:47;3.30;;;2.10;;
15449;SDS011;7826;49.784;9.934;2023-02-20T11:13:17;4.27;;;2.13;;
15449;SDS011;7826;49.784;9.934;2023-02-20T11:15:49;4.40;;;2.67;;
15449;SDS011;7826;49.784;9.934;2023-02-20T11:18:20;4.00;;;2.17;;
15449;SDS011;7826;49.784;9.934;2023-02-20T11:20:51;9.37;;;2.53;;
15449;SDS011;7826;49.784;9.934;2023-02-20T11:29:24;3.07;;;1.97;;
15449;SDS011;7826;49.784;9.934;2023-02-20T11:31:45;2.23;;;1.80;;
15449;SDS011;7826;49.784;9.934;2023-02-20T11:34:16;2.53;;;1.73;;
15449;SDS011;7826;49.784;9.934;2023-02-20T11:36:48;1.83;;;1.73;;
15449;SDS011;7826;49.784;9.934;2023-02-20T11:39:24;3.33;;;1.90;;
15449;SDS011;7826;49.784;9.934;2023-02-20T11:42:03;1.70;;;1.60;;
15449;SDS011;7826;49.784;9.934;2023-02-20T11:44:37;3.87;;;1.90;;
15449;SDS011;7826;49.784;9.934;2023-02-20T11:47:16;3.20;;;1.80;;
15449;SDS011;7826;49.784;9.934;2023-02-20T11:52:57;3.57;;;1.80;;
15449;SDS011;7826;49.784;9.934;2023-02-20T11:55:32;1.87;;;1.67;;
15449;SDS011;7826;49.784;9.934;2023-02-20T11:57:59;4.13;;;1.90;;
15449;SDS011;7826;49.784;9.934;2023-02-20T12:00:28;2.50;;;1.77;;
15449;SDS011;7826;49.784;9.934;2023-02-20T12:03:13;4.77;;;1.87;;
15449;SDS011;7826;49.784;9.934;2023-02-20T12:05:47;1.90;;;1.77;;
15449;SDS011;7826;49.784;9.934;2023-02-20T12:11:10;3.10;;;1.97;;
15449;SDS011;7826;49.784;9.934;2023-02-20T12:13:43;3.43;;;1.60;;
15449;SDS011;7826;49.784;9.934;2023-02-20T12:18:48;3.27;;;1.60;;
15449;SDS011;7826;49.784;9.934;2023-02-20T12:24:00;2.83;;;1.60;;
15449;SDS011;7826;49.784;9.934;2023-02-20T12:26:56;1.77;;;1.50;;
15449;SDS011;7826;49.784;9.934;2023-02-20T12:32:09;2.40;;;1.47;;
15449;SDS011;7826;49.784;9.934;2023-02-20T12:34:53;2.87;;;1.60;;
15449;SDS011;7826;49.784;9.934;2023-02-20T12:43:45;4.33;;;1.80;;
15449;SDS011;7826;49.784;9.934;2023-02-20T12:46:22;2.20;;;1.57;;
15449;SDS011;7826;49.784;9.934;2023-02-20T12:51:53;1.80;;;1.53;;
15449;SDS011;7826;49.784;9.934;2023-02-20T12:57:29;2.67;;;1.60;;
15449;SDS011;7826;49.784;9.934;2023-02-20T13:00:27;4.20;;;1.80;;
15449;SDS011;7826;49.784;9.934;2023-02-20T13:03:06;3.80;;;1.80;;
15449;SDS011;7826;49.784;9.934;2023-02-20T13:05:41;2.93;;;1.67;;
15449;SDS011;7826;49.784;9.934;2023-02-20T13:08:11;2.93;;;1.63;;
15449;SDS011;7826;49.784;9.934;2023-02-20T13:10:47;3.20;;;1.60;;
15449;SDS011;7826;49.784;9.934;2023-02-20T13:16:39;3.17;;;1.60;;
15449;SDS011;7826;49.784;9.934;2023-02-20T13:22:02;1.60;;;1.50;;
15449;SDS011;7826;49.784;9.934;2023-02-20T13:24:35;2.20;;;1.37;;
15449;SDS011;7826;49.784;9.934;2023-02-20T13:27:04;2.73;;;1.70;;
15449;SDS011;7826;49.784;9.934;2023-02-20T13:29:36;4.73;;;1.50;;
15449;SDS011;7826;49.784;9.934;2023-02-20T13:34:51;2.53;;;1.50;;
15449;SDS011;7826;49.784;9.934;2023-02-20T13:45:38;1.93;;;1.47;;
15449;SDS011;7826;49.784;9.934;2023-02-20T13:48:19;2.87;;;1.60;;
15449;SDS011;7826;49.784;9.934;2023-02-20T13:56:26;2.27;;;1.60;;
15449;SDS011;7826;49.784;9.934;2023-02-20T13:59:03;2.30;;;1.60;;
15449;SDS011;7826;49.784;9.934;2023-02-20T14:02:01;1.97;;;1.50;;
15449;SDS011;7826;49.784;9.934;2023-02-20T14:04:30;2.83;;;1.47;;
15449;SDS011;7826;49.784;9.934;2023-02-20T14:06:58;1.63;;;1.37;;
15449;SDS011;7826;49.784;9.934;2023-02-20T14:09:26;2.63;;;1.50;;
15449;SDS011;7826;49.784;9.934;2023-02-20T14:12:12;5.03;;;1.53;;
15449;SDS011;7826;49.784;9.934;2023-02-20T14:14:42;2.37;;;1.67;;
15449;SDS011;7826;49.784;9.934;2023-02-20T14:17:19;1.60;;;1.50;;
15449;SDS011;7826;49.784;9.934;2023-02-20T14:19:53;1.80;;;1.70;;
15449;SDS011;7826;49.784;9.934;2023-02-20T14:22:27;2.23;;;1.60;;
15449;SDS011;7826;49.784;9.934;2023-02-20T14:25:08;3.30;;;1.30;;
15449;SDS011;7826;49.784;9.934;2023-02-20T14:27:44;3.63;;;1.77;;
15449;SDS011;7826;49.784;9.934;2023-02-20T14:30:12;6.57;;;1.80;;
15449;SDS011;7826;49.784;9.934;2023-02-20T14:32:52;2.60;;;1.73;;
15449;SDS011;7826;49.784;9.934;2023-02-20T14:40:53;3.83;;;1.77;;
15449;SDS011;7826;49.784;9.934;2023-02-20T14:43:20;2.30;;;1.63;;
15449;SDS011;7826;49.784;9.934;2023-02-20T14:45:59;3.13;;;1.80;;
15449;SDS011;7826;49.784;9.934;2023-02-20T14:48:31;3.13;;;1.70;;
15449;SDS011;7826;49.784;9.934;2023-02-20T14:53:42;5.13;;;2.00;;
15449;SDS011;7826;49.784;9.934;2023-02-20T14:56:14;1.97;;;1.60;;
15449;SDS011;7826;49.784;9.934;2023-02-20T14:58:43;1.80;;;1.63;;
15449;SDS011;7826;49.784;9.934;2023-02-20T15:01:15;1.90;;;1.70;;
15449;SDS011;7826;49.784;9.934;2023-02-20T15:03:42;1.73;;;1.63;;
15449;SDS011;7826;49.784;9.934;2023-02-20T15:06:23;3.77;;;1.67;;
15449;SDS011;7826;49.784;9.934;2023-02-20T15:08:54;1.70;;;1.60;;
15449;SDS011;7826;49.784;9.934;2023-02-20T15:11:22;4.18;;;1.70;;
15449;SDS011;7826;49.784;9.934;2023-02-20T15:13:49;2.03;;;1.83;;
15449;SDS011;7826;49.784;9.934;2023-02-20T15:16:20;2.90;;;1.60;;
15449;SDS011;7826;49.784;9.934;2023-02-20T15:18:49;1.83;;;1.70;;
15449;SDS011;7826;49.784;9.934;2023-02-20T15:21:37;3.20;;;1.83;;
15449;SDS011;7826;49.784;9.934;2023-02-20T15:26:50;2.77;;;1.90;;
15449;SDS011;7826;49.784;9.934;2023-02-20T15:29:26;5.57;;;1.83;;
15449;SDS011;7826;49.784;9.934;2023-02-20T15:31:54;2.30;;;1.60;;
15449;SDS011;7826;49.784;9.934;2023-02-20T15:34:31;3.13;;;1.90;;
15449;SDS011;7826;49.784;9.934;2023-02-20T15:37:00;2.90;;;1.63;;
15449;SDS011;7826;49.784;9.934;2023-02-20T15:39:39;2.33;;;1.57;;
15449;SDS011;7826;49.784;9.934;2023-02-20T15:42:09;3.97;;;1.50;;
15449;SDS011;7826;49.784;9.934;2023-02-20T15:44:36;1.93;;;1.80;;
15449;SDS011;7826;49.784;9.934;2023-02-20T15:47:03;3.57;;;1.80;;
15449;SDS011;7826;49.784;9.934;2023-02-20T15:49:29;2.10;;;1.33;;
15449;SDS011;7826;49.784;9.934;2023-02-20T15:51:55;1.97;;;1.43;;
15449;SDS011;7826;49.784;9.934;2023-02-20T15:54:22;2.30;;;1.50;;
15449;SDS011;7826;49.784;9.934;2023-02-20T15:56:48;1.40;;;1.30;;
15449;SDS011;7826;49.784;9.934;2023-02-20T15:59:16;2.10;;;1.73;;
15449;SDS011;7826;49.784;9.934;2023-02-20T16:01:43;1.50;;;1.40;;
15449;SDS011;7826;49.784;9.934;2023-02-20T16:04:15;2.43;;;1.60;;
15449;SDS011;7826;49.784;9.934;2023-02-20T16:06:42;3.07;;;1.70;;
15449;SDS011;7826;49.784;9.934;2023-02-20T16:09:09;3.00;;;1.60;;
15449;SDS011;7826;49.784;9.934;2023-02-20T16:11:43;2.10;;;1.40;;
15449;SDS011;7826;49.784;9.934;2023-02-20T16:14:11;2.37;;;1.60;;
15449;SDS011;7826;49.784;9.934;2023-02-20T16:16:40;2.83;;;1.67;;
15449;SDS011;7826;49.784;9.934;2023-02-20T16:19:17;3.77;;;1.77;;
15449;SDS011;7826;49.784;9.934;2023-02-20T16:21:46;3.40;;;1.70;;
15449;SDS011;7826;49.784;9.934;2023-02-20T16:24:13;3.00;;;1.67;;
15449;SDS011;7826;49.784;9.934;2023-02-20T16:26:41;1.57;;;1.47;;
15449;SDS011;7826;49.784;9.934;2023-02-20T16:29:14;4.30;;;1.50;;
15449;SDS011;7826;49.784;9.934;2023-02-20T16:34:21;3.57;;;1.70;;
15449;SDS011;7826;49.784;9.934;2023-02-20T16:36:50;3.30;;;2.03;;
15449;SDS011;7826;49.784;9.934;2023-02-20T16:39:17;4.97;;;2.00;;
15449;SDS011;7826;49.784;9.934;2023-02-20T16:41:44;1.83;;;1.50;;
15449;SDS011;7826;49.784;9.934;2023-02-20T16:44:22;2.80;;;1.80;;
15449;SDS011;7826;49.784;9.934;2023-02-20T16:46:54;3.63;;;1.90;;
15449;SDS011;7826;49.784;9.934;2023-02-20T16:49:21;2.93;;;1.67;;
15449;SDS011;7826;49.784;9.934;2023-02-20T16:51:47;1.60;;;1.50;;
15449;SDS011;7826;49.784;9.934;2023-02-20T16:54:16;3.53;;;1.70;;
15449;SDS011;7826;49.784;9.934;2023-02-20T16:56:43;2.33;;;1.63;;
15449;SDS011;7826;49.784;9.934;2023-02-20T16:59:10;2.97;;;1.70;;
15449;SDS011;7826;49.784;9.934;2023-02-20T17:01:37;2.47;;;1.67;;
15449;SDS011;7826;49.784;9.934;2023-02-20T17:04:03;1.50;;;1.40;;
15449;SDS011;7826;49.784;9.934;2023-02-20T17:06:33;2.80;;;1.60;;
15449;SDS011;7826;49.784;9.934;2023-02-20T17:09:01;2.40;;;1.53;;
15449;SDS011;7826;49.784;9.934;2023-02-20T17:11:28;4.30;;;1.60;;
15449;SDS011;7826;49.784;9.934;2023-02-20T17:13:56;2.17;;;1.53;;
15449;SDS011;7826;49.784;9.934;2023-02-20T17:16:23;2.93;;;1.53;;
15449;SDS011;7826;49.784;9.934;2023-02-20T17:18:49;2.63;;;1.57;;
15449;SDS011;7826;49.784;9.934;2023-02-20T17:21:16;3.80;;;1.50;;
15449;SDS011;7826;49.784;9.934;2023-02-20T17:23:42;2.37;;;1.60;;
15449;SDS011;7826;49.784;9.934;2023-02-20T17:26:10;3.07;;;1.43;;
15449;SDS011;7826;49.784;9.934;2023-02-20T17:28:36;4.47;;;1.70;;
15449;SDS011;7826;49.784;9.934;2023-02-20T17:31:03;1.30;;;1.20;;
15449;SDS011;7826;49.784;9.934;2023-02-20T17:33:29;2.20;;;1.60;;
15449;SDS011;7826;49.784;9.934;2023-02-20T17:35:56;3.90;;;1.77;;
15449;SDS011;7826;49.784;9.934;2023-02-20T17:38:23;1.83;;;1.60;;
15449;SDS011;7826;49.784;9.934;2023-02-20T17:40:50;1.60;;;1.50;;